sensor_id;sensor_type;location;lat;lon;timestamp;temperature;humidity
18289;DHT22;9270;49.774;8.472;2022-07-29T04:30:28;24.00;55.20
18289;DHT22;9270;49.774;8.472;2022-07-29T04:35:19;23.80;58.80
18289;DHT22;9270;49.774;8.472;2022-07-29T04:37:46;21.70;60.30
18289;DHT22;9270;49.774;8.472;2022-07-29T04:40:13;20.50;66.10
18289;DHT22;9270;49.774;8.472;2022-07-29T04:42:40;19.80;69.70
18289;DHT22;9270;49.774;8.472;2022-07-29T04:45:07;19.50;69.90
18289;DHT22;9270;49.774;8.472;2022-07-29T04:47:34;19.20;71.10
18289;DHT22;9270;49.774;8.472;2022-07-29T04:50:01;19.00;72.30
18289;DHT22;9270;49.774;8.472;2022-07-29T04:52:29;19.00;74.10
18289;DHT22;9270;49.774;8.472;2022-07-29T04:54:55;18.90;71.90
18289;DHT22;9270;49.774;8.472;2022-07-29T04:57:22;18.90;74.40
18289;DHT22;9270;49.774;8.472;2022-07-29T04:59:49;18.80;71.20
18289;DHT22;9270;49.774;8.472;2022-07-29T05:02:15;18.90;72.60
18289;DHT22;9270;49.774;8.472;2022-07-29T05:04:42;18.90;72.60
18289;DHT22;9270;49.774;8.472;2022-07-29T05:07:09;18.90;72.90
18289;DHT22;9270;49.774;8.472;2022-07-29T05:09:37;19.00;71.90
18289;DHT22;9270;49.774;8.472;2022-07-29T05:12:05;19.00;73.40
18289;DHT22;9270;49.774;8.472;2022-07-29T05:14:32;19.10;75.00
18289;DHT22;9270;49.774;8.472;2022-07-29T05:16:59;19.10;73.10
18289;DHT22;9270;49.774;8.472;2022-07-29T05:19:26;19.20;70.90
18289;DHT22;9270;49.774;8.472;2022-07-29T05:21:52;19.30;74.20
18289;DHT22;9270;49.774;8.472;2022-07-29T05:24:19;19.30;74.60
18289;DHT22;9270;49.774;8.472;2022-07-29T05:26:47;19.30;72.20
18289;DHT22;9270;49.774;8.472;2022-07-29T05:29:14;19.50;70.80
18289;DHT22;9270;49.774;8.472;2022-07-29T05:31:41;19.60;71.90
18289;DHT22;9270;49.774;8.472;2022-07-29T05:34:07;19.40;69.30
18289;DHT22;9270;49.774;8.472;2022-07-29T05:36:34;19.60;71.90
18289;DHT22;9270;49.774;8.472;2022-07-29T05:39:01;19.80;72.10
18289;DHT22;9270;49.774;8.472;2022-07-29T05:41:27;19.90;69.10
18289;DHT22;9270;49.774;8.472;2022-07-29T05:43:56;20.10;69.60
18289;DHT22;9270;49.774;8.472;2022-07-29T05:46:23;20.30;68.00
18289;DHT22;9270;49.774;8.472;2022-07-29T05:48:49;20.50;69.20
18289;DHT22;9270;49.774;8.472;2022-07-29T05:51:16;20.50;70.00
18289;DHT22;9270;49.774;8.472;2022-07-29T05:53:43;20.60;69.50
18289;DHT22;9270;49.774;8.472;2022-07-29T05:56:10;20.70;68.40
18289;DHT22;9270;49.774;8.472;2022-07-29T05:58:37;20.80;69.50
18289;DHT22;9270;49.774;8.472;2022-07-29T06:01:05;20.80;67.60
18289;DHT22;9270;49.774;8.472;2022-07-29T06:03:31;21.00;66.00
18289;DHT22;9270;49.774;8.472;2022-07-29T06:05:58;21.30;68.60
18289;DHT22;9270;49.774;8.472;2022-07-29T06:08:25;21.60;69.10
18289;DHT22;9270;49.774;8.472;2022-07-29T06:10:52;22.40;67.80
18289;DHT22;9270;49.774;8.472;2022-07-29T06:13:19;23.00;66.60
18289;DHT22;9270;49.774;8.472;2022-07-29T06:15:45;23.70;62.70
18289;DHT22;9270;49.774;8.472;2022-07-29T06:18:13;24.10;61.90
18289;DHT22;9270;49.774;8.472;2022-07-29T06:20:41;24.50;63.70
18289;DHT22;9270;49.774;8.472;2022-07-29T06:23:07;24.80;62.30
18289;DHT22;9270;49.774;8.472;2022-07-29T06:25:35;24.90;60.80
18289;DHT22;9270;49.774;8.472;2022-07-29T06:28:02;25.00;61.10
18289;DHT22;9270;49.774;8.472;2022-07-29T06:30:29;25.20;63.00
18289;DHT22;9270;49.774;8.472;2022-07-29T06:32:56;25.50;58.80
18289;DHT22;9270;49.774;8.472;2022-07-29T06:35:24;25.10;56.70
18289;DHT22;9270;49.774;8.472;2022-07-29T06:37:51;25.40;60.10
18289;DHT22;9270;49.774;8.472;2022-07-29T06:40:18;24.90;62.20
18289;DHT22;9270;49.774;8.472;2022-07-29T06:43:02;25.00;63.60
18289;DHT22;9270;49.774;8.472;2022-07-29T06:45:29;25.20;62.70
18289;DHT22;9270;49.774;8.472;2022-07-29T06:47:55;24.70;63.30
18289;DHT22;9270;49.774;8.472;2022-07-29T06:50:23;24.30;64.30
18289;DHT22;9270;49.774;8.472;2022-07-29T06:52:50;24.00;65.50
18289;DHT22;9270;49.774;8.472;2022-07-29T06:55:17;24.20;66.20
18289;DHT22;9270;49.774;8.472;2022-07-29T06:57:44;24.40;66.20
18289;DHT22;9270;49.774;8.472;2022-07-29T07:00:13;24.30;61.90
18289;DHT22;9270;49.774;8.472;2022-07-29T07:02:39;24.20;65.50
18289;DHT22;9270;49.774;8.472;2022-07-29T07:05:07;24.40;66.30
18289;DHT22;9270;49.774;8.472;2022-07-29T07:07:35;25.00;64.10
18289;DHT22;9270;49.774;8.472;2022-07-29T07:10:02;25.80;64.80
18289;DHT22;9270;49.774;8.472;2022-07-29T07:12:28;26.00;62.70
18289;DHT22;9270;49.774;8.472;2022-07-29T07:14:55;26.00;59.00
18289;DHT22;9270;49.774;8.472;2022-07-29T07:17:22;26.60;61.30
18289;DHT22;9270;49.774;8.472;2022-07-29T07:19:49;27.10;58.90
18289;DHT22;9270;49.774;8.472;2022-07-29T07:22:16;27.50;57.10
18289;DHT22;9270;49.774;8.472;2022-07-29T07:24:44;27.90;57.20
18289;DHT22;9270;49.774;8.472;2022-07-29T07:27:11;27.70;58.10
18289;DHT22;9270;49.774;8.472;2022-07-29T07:29:37;27.80;56.10
18289;DHT22;9270;49.774;8.472;2022-07-29T07:32:06;28.10;59.20
18289;DHT22;9270;49.774;8.472;2022-07-29T07:34:33;28.50;56.40
18289;DHT22;9270;49.774;8.472;2022-07-29T07:37:00;28.30;55.70
18289;DHT22;9270;49.774;8.472;2022-07-29T07:39:26;27.60;57.70
18289;DHT22;9270;49.774;8.472;2022-07-29T07:41:54;27.90;59.00
18289;DHT22;9270;49.774;8.472;2022-07-29T07:44:21;28.60;59.40
18289;DHT22;9270;49.774;8.472;2022-07-29T07:46:48;28.80;59.00
18289;DHT22;9270;49.774;8.472;2022-07-29T07:49:15;28.90;60.10
18289;DHT22;9270;49.774;8.472;2022-07-29T07:51:41;29.10;57.20
18289;DHT22;9270;49.774;8.472;2022-07-29T07:54:08;28.90;57.90
18289;DHT22;9270;49.774;8.472;2022-07-29T07:56:35;28.60;60.20
18289;DHT22;9270;49.774;8.472;2022-07-29T07:59:03;28.30;60.70
18289;DHT22;9270;49.774;8.472;2022-07-29T08:01:30;28.40;60.60
18289;DHT22;9270;49.774;8.472;2022-07-29T08:03:56;28.20;60.70
18289;DHT22;9270;49.774;8.472;2022-07-29T08:06:23;28.40;62.00
18289;DHT22;9270;49.774;8.472;2022-07-29T08:08:50;27.70;61.60
18289;DHT22;9270;49.774;8.472;2022-07-29T08:11:17;27.00;63.10
18289;DHT22;9270;49.774;8.472;2022-07-29T08:13:44;27.00;64.50
18289;DHT22;9270;49.774;8.472;2022-07-29T08:16:13;27.50;62.20
18289;DHT22;9270;49.774;8.472;2022-07-29T08:18:42;28.30;61.70
18289;DHT22;9270;49.774;8.472;2022-07-29T08:21:09;28.70;61.30
18289;DHT22;9270;49.774;8.472;2022-07-29T08:23:36;28.90;64.40
18289;DHT22;9270;49.774;8.472;2022-07-29T08:26:05;29.30;61.00
18289;DHT22;9270;49.774;8.472;2022-07-29T08:28:36;29.30;62.20
18289;DHT22;9270;49.774;8.472;2022-07-29T08:31:02;28.40;61.80
18289;DHT22;9270;49.774;8.472;2022-07-29T08:33:31;27.70;63.00
18289;DHT22;9270;49.774;8.472;2022-07-29T08:35:58;27.60;67.30
18289;DHT22;9270;49.774;8.472;2022-07-29T08:38:25;27.70;67.40
18289;DHT22;9270;49.774;8.472;2022-07-29T08:40:52;27.00;66.90
18289;DHT22;9270;49.774;8.472;2022-07-29T08:43:19;27.10;68.30
18289;DHT22;9270;49.774;8.472;2022-07-29T08:45:48;27.60;66.80
18289;DHT22;9270;49.774;8.472;2022-07-29T08:48:17;28.00;65.00
18289;DHT22;9270;49.774;8.472;2022-07-29T08:50:48;27.30;64.50
18289;DHT22;9270;49.774;8.472;2022-07-29T08:53:16;26.70;67.50
18289;DHT22;9270;49.774;8.472;2022-07-29T08:55:45;26.80;68.80
18289;DHT22;9270;49.774;8.472;2022-07-29T08:58:12;28.10;64.70
18289;DHT22;9270;49.774;8.472;2022-07-29T09:00:43;28.30;64.10
18289;DHT22;9270;49.774;8.472;2022-07-29T09:03:12;28.00;63.60
18289;DHT22;9270;49.774;8.472;2022-07-29T09:05:41;28.40;64.00
18289;DHT22;9270;49.774;8.472;2022-07-29T09:08:10;27.70;62.00
18289;DHT22;9270;49.774;8.472;2022-07-29T09:10:37;28.30;64.00
18289;DHT22;9270;49.774;8.472;2022-07-29T09:13:04;28.70;63.80
18289;DHT22;9270;49.774;8.472;2022-07-29T09:15:31;28.00;63.30
18289;DHT22;9270;49.774;8.472;2022-07-29T09:17:58;27.50;64.60
18289;DHT22;9270;49.774;8.472;2022-07-29T09:20:26;28.00;67.20
18289;DHT22;9270;49.774;8.472;2022-07-29T09:23:14;28.60;65.20
18289;DHT22;9270;49.774;8.472;2022-07-29T09:25:41;28.10;62.50
18289;DHT22;9270;49.774;8.472;2022-07-29T09:28:08;28.30;64.20
18289;DHT22;9270;49.774;8.472;2022-07-29T09:30:36;29.10;66.50
18289;DHT22;9270;49.774;8.472;2022-07-29T09:33:05;29.60;62.00
18289;DHT22;9270;49.774;8.472;2022-07-29T09:35:32;29.90;63.10
18289;DHT22;9270;49.774;8.472;2022-07-29T09:38:10;30.00;60.10
18289;DHT22;9270;49.774;8.472;2022-07-29T09:40:38;30.40;63.00
18289;DHT22;9270;49.774;8.472;2022-07-29T09:43:14;30.80;59.70
18289;DHT22;9270;49.774;8.472;2022-07-29T09:45:41;31.00;59.80
18289;DHT22;9270;49.774;8.472;2022-07-29T09:48:16;30.90;58.90
18289;DHT22;9270;49.774;8.472;2022-07-29T09:50:44;30.80;58.00
18289;DHT22;9270;49.774;8.472;2022-07-29T09:53:13;30.70;58.00
18289;DHT22;9270;49.774;8.472;2022-07-29T09:55:57;30.40;57.70
18289;DHT22;9270;49.774;8.472;2022-07-29T09:58:23;30.10;60.70
18289;DHT22;9270;49.774;8.472;2022-07-29T10:00:51;30.00;60.30
18289;DHT22;9270;49.774;8.472;2022-07-29T10:03:19;30.10;61.30
18289;DHT22;9270;49.774;8.472;2022-07-29T10:05:47;30.40;62.20
18289;DHT22;9270;49.774;8.472;2022-07-29T10:08:29;30.40;61.00
18289;DHT22;9270;49.774;8.472;2022-07-29T10:11:09;30.10;58.80
18289;DHT22;9270;49.774;8.472;2022-07-29T10:13:36;29.70;60.20
18289;DHT22;9270;49.774;8.472;2022-07-29T10:16:03;29.90;61.00
18289;DHT22;9270;49.774;8.472;2022-07-29T10:18:30;30.00;60.00
18289;DHT22;9270;49.774;8.472;2022-07-29T10:20:58;30.10;61.70
18289;DHT22;9270;49.774;8.472;2022-07-29T10:23:27;30.50;61.00
18289;DHT22;9270;49.774;8.472;2022-07-29T10:25:54;30.70;59.80
18289;DHT22;9270;49.774;8.472;2022-07-29T10:28:22;30.50;59.80
18289;DHT22;9270;49.774;8.472;2022-07-29T10:30:51;29.80;60.20
18289;DHT22;9270;49.774;8.472;2022-07-29T10:33:29;29.10;63.20
18289;DHT22;9270;49.774;8.472;2022-07-29T10:36:04;29.10;62.60
18289;DHT22;9270;49.774;8.472;2022-07-29T10:38:43;29.20;61.60
18289;DHT22;9270;49.774;8.472;2022-07-29T10:41:20;29.30;63.10
18289;DHT22;9270;49.774;8.472;2022-07-29T10:43:58;29.80;61.30
18289;DHT22;9270;49.774;8.472;2022-07-29T10:46:26;29.90;61.00
18289;DHT22;9270;49.774;8.472;2022-07-29T10:49:11;30.20;60.50
18289;DHT22;9270;49.774;8.472;2022-07-29T10:52:00;30.30;59.90
18289;DHT22;9270;49.774;8.472;2022-07-29T10:54:48;30.30;63.20
18289;DHT22;9270;49.774;8.472;2022-07-29T10:57:24;30.60;60.20
18289;DHT22;9270;49.774;8.472;2022-07-29T11:00:30;30.60;60.80
18289;DHT22;9270;49.774;8.472;2022-07-29T11:02:58;30.60;59.20
18289;DHT22;9270;49.774;8.472;2022-07-29T11:05:26;30.90;59.20
18289;DHT22;9270;49.774;8.472;2022-07-29T11:08:18;31.00;59.50
18289;DHT22;9270;49.774;8.472;2022-07-29T11:10:46;30.60;59.50
18289;DHT22;9270;49.774;8.472;2022-07-29T11:13:47;30.40;58.70
18289;DHT22;9270;49.774;8.472;2022-07-29T11:16:17;30.10;58.70
18289;DHT22;9270;49.774;8.472;2022-07-29T11:19:19;29.80;59.50
18289;DHT22;9270;49.774;8.472;2022-07-29T11:21:46;29.30;60.00
18289;DHT22;9270;49.774;8.472;2022-07-29T11:24:16;29.60;62.20
18289;DHT22;9270;49.774;8.472;2022-07-29T11:26:43;30.00;60.90
18289;DHT22;9270;49.774;8.472;2022-07-29T11:29:20;30.80;59.30
18289;DHT22;9270;49.774;8.472;2022-07-29T11:31:50;30.70;59.10
18289;DHT22;9270;49.774;8.472;2022-07-29T11:34:24;30.50;58.00
18289;DHT22;9270;49.774;8.472;2022-07-29T11:37:13;30.10;56.80
18289;DHT22;9270;49.774;8.472;2022-07-29T11:39:41;30.10;60.80
18289;DHT22;9270;49.774;8.472;2022-07-29T11:45:23;30.20;58.00
18289;DHT22;9270;49.774;8.472;2022-07-29T11:47:56;29.70;59.20
18289;DHT22;9270;49.774;8.472;2022-07-29T11:50:33;29.90;61.90
18289;DHT22;9270;49.774;8.472;2022-07-29T11:53:02;30.40;59.60
18289;DHT22;9270;49.774;8.472;2022-07-29T11:55:29;30.70;58.20
18289;DHT22;9270;49.774;8.472;2022-07-29T11:57:58;30.80;57.80
18289;DHT22;9270;49.774;8.472;2022-07-29T12:00:28;30.50;58.50
18289;DHT22;9270;49.774;8.472;2022-07-29T12:02:58;30.50;57.30
18289;DHT22;9270;49.774;8.472;2022-07-29T12:05:34;30.50;56.80
18289;DHT22;9270;49.774;8.472;2022-07-29T12:08:08;30.60;57.10
18289;DHT22;9270;49.774;8.472;2022-07-29T12:10:36;30.40;57.20
18289;DHT22;9270;49.774;8.472;2022-07-29T12:13:03;31.00;57.50
18289;DHT22;9270;49.774;8.472;2022-07-29T12:15:30;31.20;57.30
18289;DHT22;9270;49.774;8.472;2022-07-29T12:17:58;31.10;57.40
18289;DHT22;9270;49.774;8.472;2022-07-29T12:20:26;31.30;57.20
18289;DHT22;9270;49.774;8.472;2022-07-29T12:22:53;31.10;56.70
18289;DHT22;9270;49.774;8.472;2022-07-29T12:25:21;30.90;55.60
18289;DHT22;9270;49.774;8.472;2022-07-29T12:27:58;30.50;56.60
18289;DHT22;9270;49.774;8.472;2022-07-29T12:30:39;30.80;57.50
18289;DHT22;9270;49.774;8.472;2022-07-29T12:33:19;31.00;55.00
18289;DHT22;9270;49.774;8.472;2022-07-29T12:35:48;31.00;55.20
18289;DHT22;9270;49.774;8.472;2022-07-29T12:38:16;30.70;54.60
18289;DHT22;9270;49.774;8.472;2022-07-29T12:40:44;31.20;56.50
18289;DHT22;9270;49.774;8.472;2022-07-29T12:43:14;31.30;57.60
18289;DHT22;9270;49.774;8.472;2022-07-29T12:45:42;31.40;55.60
18289;DHT22;9270;49.774;8.472;2022-07-29T12:48:09;31.20;55.50
18289;DHT22;9270;49.774;8.472;2022-07-29T12:50:52;31.00;57.10
18289;DHT22;9270;49.774;8.472;2022-07-29T12:53:20;30.60;56.60
18289;DHT22;9270;49.774;8.472;2022-07-29T12:55:48;30.90;56.20
18289;DHT22;9270;49.774;8.472;2022-07-29T12:58:31;31.10;55.20
18289;DHT22;9270;49.774;8.472;2022-07-29T13:01:04;30.50;56.70
18289;DHT22;9270;49.774;8.472;2022-07-29T13:03:42;30.50;55.80
18289;DHT22;9270;49.774;8.472;2022-07-29T13:06:29;30.20;56.50
18289;DHT22;9270;49.774;8.472;2022-07-29T13:09:00;30.50;56.10
18289;DHT22;9270;49.774;8.472;2022-07-29T13:11:29;30.30;55.60
18289;DHT22;9270;49.774;8.472;2022-07-29T13:13:56;29.70;57.00
18289;DHT22;9270;49.774;8.472;2022-07-29T13:16:22;29.30;58.80
18289;DHT22;9270;49.774;8.472;2022-07-29T13:19:06;29.10;58.20
18289;DHT22;9270;49.774;8.472;2022-07-29T13:21:35;29.00;58.60
18289;DHT22;9270;49.774;8.472;2022-07-29T13:24:03;29.10;58.80
18289;DHT22;9270;49.774;8.472;2022-07-29T13:26:30;28.90;59.00
18289;DHT22;9270;49.774;8.472;2022-07-29T13:28:56;28.70;60.40
18289;DHT22;9270;49.774;8.472;2022-07-29T13:31:23;28.80;60.40
18289;DHT22;9270;49.774;8.472;2022-07-29T13:33:50;28.90;60.10
18289;DHT22;9270;49.774;8.472;2022-07-29T13:36:19;28.70;58.90
18289;DHT22;9270;49.774;8.472;2022-07-29T13:38:47;28.70;62.40
18289;DHT22;9270;49.774;8.472;2022-07-29T13:41:14;28.70;62.50
18289;DHT22;9270;49.774;8.472;2022-07-29T13:43:40;28.60;60.40
18289;DHT22;9270;49.774;8.472;2022-07-29T13:46:07;28.40;60.80
18289;DHT22;9270;49.774;8.472;2022-07-29T13:48:34;28.40;60.90
18289;DHT22;9270;49.774;8.472;2022-07-29T13:51:01;28.50;61.10
18289;DHT22;9270;49.774;8.472;2022-07-29T13:53:27;28.50;59.90
18289;DHT22;9270;49.774;8.472;2022-07-29T13:55:56;28.50;61.90
18289;DHT22;9270;49.774;8.472;2022-07-29T13:58:22;28.50;66.20
18289;DHT22;9270;49.774;8.472;2022-07-29T14:00:49;28.20;68.90
18289;DHT22;9270;49.774;8.472;2022-07-29T14:03:16;28.10;66.90
18289;DHT22;9270;49.774;8.472;2022-07-29T14:05:43;28.10;66.30
18289;DHT22;9270;49.774;8.472;2022-07-29T14:08:10;28.10;63.30
18289;DHT22;9270;49.774;8.472;2022-07-29T14:10:37;28.00;64.60
18289;DHT22;9270;49.774;8.472;2022-07-29T14:13:05;28.10;63.60
18289;DHT22;9270;49.774;8.472;2022-07-29T14:15:32;28.10;64.30
18289;DHT22;9270;49.774;8.472;2022-07-29T14:17:58;28.10;61.40
18289;DHT22;9270;49.774;8.472;2022-07-29T14:20:25;28.20;63.80
18289;DHT22;9270;49.774;8.472;2022-07-29T14:22:53;28.40;61.40
18289;DHT22;9270;49.774;8.472;2022-07-29T14:25:20;28.70;61.70
18289;DHT22;9270;49.774;8.472;2022-07-29T14:27:47;28.80;62.60
18289;DHT22;9270;49.774;8.472;2022-07-29T14:30:15;28.60;58.70
18289;DHT22;9270;49.774;8.472;2022-07-29T14:32:42;28.50;59.10
18289;DHT22;9270;49.774;8.472;2022-07-29T14:35:09;28.60;60.80
18289;DHT22;9270;49.774;8.472;2022-07-29T14:37:36;28.60;57.90
18289;DHT22;9270;49.774;8.472;2022-07-29T14:40:04;28.60;59.60
18289;DHT22;9270;49.774;8.472;2022-07-29T14:42:30;28.60;58.00
18289;DHT22;9270;49.774;8.472;2022-07-29T14:44:57;28.70;59.50
18289;DHT22;9270;49.774;8.472;2022-07-29T14:47:25;28.80;57.70
18289;DHT22;9270;49.774;8.472;2022-07-29T14:49:52;28.90;57.30
18289;DHT22;9270;49.774;8.472;2022-07-29T14:52:19;28.90;56.10
18289;DHT22;9270;49.774;8.472;2022-07-29T14:54:46;29.00;55.30
18289;DHT22;9270;49.774;8.472;2022-07-29T14:57:12;29.00;56.30
18289;DHT22;9270;49.774;8.472;2022-07-29T14:59:39;29.00;56.10
18289;DHT22;9270;49.774;8.472;2022-07-29T15:02:06;29.10;57.10
18289;DHT22;9270;49.774;8.472;2022-07-29T15:04:34;29.20;58.20
18289;DHT22;9270;49.774;8.472;2022-07-29T15:07:00;29.20;56.10
18289;DHT22;9270;49.774;8.472;2022-07-29T15:09:27;29.10;57.20
18289;DHT22;9270;49.774;8.472;2022-07-29T15:11:54;28.90;55.70
18289;DHT22;9270;49.774;8.472;2022-07-29T15:14:21;28.70;55.80
18289;DHT22;9270;49.774;8.472;2022-07-29T15:16:48;28.60;56.40
18289;DHT22;9270;49.774;8.472;2022-07-29T15:19:14;28.60;57.40
18289;DHT22;9270;49.774;8.472;2022-07-29T15:21:42;28.60;56.80
18289;DHT22;9270;49.774;8.472;2022-07-29T15:24:09;28.70;56.50
18289;DHT22;9270;49.774;8.472;2022-07-29T15:26:36;28.70;57.30
18289;DHT22;9270;49.774;8.472;2022-07-29T15:29:03;28.80;58.00
18289;DHT22;9270;49.774;8.472;2022-07-29T15:31:29;28.90;57.20
18289;DHT22;9270;49.774;8.472;2022-07-29T15:33:56;29.00;56.70
18289;DHT22;9270;49.774;8.472;2022-07-29T15:36:23;29.10;58.60
18289;DHT22;9270;49.774;8.472;2022-07-29T15:38:52;29.40;56.20
18289;DHT22;9270;49.774;8.472;2022-07-29T15:41:20;29.60;56.80
18289;DHT22;9270;49.774;8.472;2022-07-29T15:43:47;29.60;55.70
18289;DHT22;9270;49.774;8.472;2022-07-29T15:46:16;29.60;54.40
18289;DHT22;9270;49.774;8.472;2022-07-29T15:49:01;29.70;55.20
18289;DHT22;9270;49.774;8.472;2022-07-29T15:51:28;29.70;55.50
18289;DHT22;9270;49.774;8.472;2022-07-29T15:53:57;29.60;57.90
18289;DHT22;9270;49.774;8.472;2022-07-29T15:56:24;29.70;56.70
18289;DHT22;9270;49.774;8.472;2022-07-29T15:58:51;29.60;56.40
18289;DHT22;9270;49.774;8.472;2022-07-29T16:01:17;29.60;58.20
18289;DHT22;9270;49.774;8.472;2022-07-29T16:03:44;29.60;57.10
18289;DHT22;9270;49.774;8.472;2022-07-29T16:06:11;29.40;58.90
18289;DHT22;9270;49.774;8.472;2022-07-29T16:08:38;29.30;59.50
18289;DHT22;9270;49.774;8.472;2022-07-29T16:11:06;29.00;59.40
18289;DHT22;9270;49.774;8.472;2022-07-29T16:13:33;28.80;59.70
18289;DHT22;9270;49.774;8.472;2022-07-29T16:16:00;28.70;61.70
18289;DHT22;9270;49.774;8.472;2022-07-29T16:18:27;28.60;61.80
18289;DHT22;9270;49.774;8.472;2022-07-29T16:20:53;28.40;60.90
18289;DHT22;9270;49.774;8.472;2022-07-29T16:23:20;28.50;60.70
18289;DHT22;9270;49.774;8.472;2022-07-29T16:25:48;28.40;61.10
18289;DHT22;9270;49.774;8.472;2022-07-29T16:28:16;28.20;61.30
18289;DHT22;9270;49.774;8.472;2022-07-29T16:30:43;28.10;61.70
18289;DHT22;9270;49.774;8.472;2022-07-29T16:33:13;27.90;62.40
18289;DHT22;9270;49.774;8.472;2022-07-29T16:35:40;27.80;61.10
18289;DHT22;9270;49.774;8.472;2022-07-29T16:38:07;27.80;62.50
18289;DHT22;9270;49.774;8.472;2022-07-29T16:40:33;27.60;63.10
18289;DHT22;9270;49.774;8.472;2022-07-29T16:43:00;27.60;62.40
18289;DHT22;9270;49.774;8.472;2022-07-29T16:45:28;27.70;60.40
18289;DHT22;9270;49.774;8.472;2022-07-29T16:47:55;27.80;61.80
18289;DHT22;9270;49.774;8.472;2022-07-29T16:50:22;27.90;59.80
18289;DHT22;9270;49.774;8.472;2022-07-29T16:52:50;27.80;61.10
18289;DHT22;9270;49.774;8.472;2022-07-29T16:55:17;27.70;60.80
18289;DHT22;9270;49.774;8.472;2022-07-29T16:57:44;27.70;60.40
18289;DHT22;9270;49.774;8.472;2022-07-29T17:00:12;27.60;60.60
18289;DHT22;9270;49.774;8.472;2022-07-29T17:02:40;27.70;60.20
18289;DHT22;9270;49.774;8.472;2022-07-29T17:05:08;27.60;61.90
18289;DHT22;9270;49.774;8.472;2022-07-29T17:07:36;27.30;61.00
18289;DHT22;9270;49.774;8.472;2022-07-29T17:10:08;27.20;61.90
18289;DHT22;9270;49.774;8.472;2022-07-29T17:12:35;27.00;64.40
18289;DHT22;9270;49.774;8.472;2022-07-29T17:15:02;26.90;65.20
18289;DHT22;9270;49.774;8.472;2022-07-29T17:17:30;26.70;63.90
18289;DHT22;9270;49.774;8.472;2022-07-29T17:19:58;26.60;65.80
18289;DHT22;9270;49.774;8.472;2022-07-29T17:22:25;26.50;64.60
18289;DHT22;9270;49.774;8.472;2022-07-29T17:24:52;26.50;65.40
18289;DHT22;9270;49.774;8.472;2022-07-29T17:27:19;26.50;64.60
18289;DHT22;9270;49.774;8.472;2022-07-29T17:29:46;26.50;64.60
18289;DHT22;9270;49.774;8.472;2022-07-29T17:32:12;26.50;64.70
18289;DHT22;9270;49.774;8.472;2022-07-29T17:34:40;26.40;63.90
18289;DHT22;9270;49.774;8.472;2022-07-29T17:37:10;26.30;63.10
18289;DHT22;9270;49.774;8.472;2022-07-29T17:39:37;26.20;63.10
18289;DHT22;9270;49.774;8.472;2022-07-29T17:42:05;26.20;63.20
18289;DHT22;9270;49.774;8.472;2022-07-29T17:44:32;26.00;63.50
18289;DHT22;9270;49.774;8.472;2022-07-29T17:46:59;26.00;64.00
18289;DHT22;9270;49.774;8.472;2022-07-29T17:49:26;26.00;64.50
18289;DHT22;9270;49.774;8.472;2022-07-29T17:51:53;25.80;63.40
18289;DHT22;9270;49.774;8.472;2022-07-29T17:54:21;25.70;65.10
18289;DHT22;9270;49.774;8.472;2022-07-29T17:56:48;25.70;64.40
18289;DHT22;9270;49.774;8.472;2022-07-29T17:59:14;25.50;64.60
18289;DHT22;9270;49.774;8.472;2022-07-29T18:01:41;25.40;64.50
18289;DHT22;9270;49.774;8.472;2022-07-29T18:04:08;25.30;65.20
18289;DHT22;9270;49.774;8.472;2022-07-29T18:06:36;25.20;66.10
18289;DHT22;9270;49.774;8.472;2022-07-29T18:09:03;25.20;66.00
18289;DHT22;9270;49.774;8.472;2022-07-29T18:11:31;25.10;65.90
18289;DHT22;9270;49.774;8.472;2022-07-29T18:13:57;25.00;65.60
18289;DHT22;9270;49.774;8.472;2022-07-29T18:16:24;24.90;66.00
18289;DHT22;9270;49.774;8.472;2022-07-29T18:18:51;24.80;66.80
18289;DHT22;9270;49.774;8.472;2022-07-29T18:21:17;24.70;68.20
18289;DHT22;9270;49.774;8.472;2022-07-29T18:23:44;24.60;69.20
18289;DHT22;9270;49.774;8.472;2022-07-29T18:26:15;24.50;68.90
18289;DHT22;9270;49.774;8.472;2022-07-29T18:28:43;24.50;68.00
18289;DHT22;9270;49.774;8.472;2022-07-29T18:31:10;24.50;67.50
18289;DHT22;9270;49.774;8.472;2022-07-29T18:33:37;24.50;68.60
18289;DHT22;9270;49.774;8.472;2022-07-29T18:36:05;24.40;69.70
18289;DHT22;9270;49.774;8.472;2022-07-29T18:38:32;24.40;69.00
18289;DHT22;9270;49.774;8.472;2022-07-29T18:40:58;24.30;69.00
18289;DHT22;9270;49.774;8.472;2022-07-29T18:43:25;24.30;69.90
18289;DHT22;9270;49.774;8.472;2022-07-29T18:45:53;24.10;71.80
18289;DHT22;9270;49.774;8.472;2022-07-29T18:48:20;23.80;84.40
18289;DHT22;9270;49.774;8.472;2022-07-29T18:50:46;23.20;88.90
18289;DHT22;9270;49.774;8.472;2022-07-29T18:53:14;22.60;93.60
18289;DHT22;9270;49.774;8.472;2022-07-29T18:55:41;21.80;99.90
18289;DHT22;9270;49.774;8.472;2022-07-29T18:58:08;21.30;99.90
18289;DHT22;9270;49.774;8.472;2022-07-29T19:00:35;21.10;99.90
18289;DHT22;9270;49.774;8.472;2022-07-29T19:03:03;20.90;99.90
18289;DHT22;9270;49.774;8.472;2022-07-29T19:05:30;20.80;99.90
18289;DHT22;9270;49.774;8.472;2022-07-29T19:07:57;20.80;99.90
18289;DHT22;9270;49.774;8.472;2022-07-29T19:10:24;20.80;99.90
18289;DHT22;9270;49.774;8.472;2022-07-29T19:12:51;20.80;99.90
18289;DHT22;9270;49.774;8.472;2022-07-29T19:15:18;20.70;99.90
18289;DHT22;9270;49.774;8.472;2022-07-29T19:17:45;20.70;99.90
18289;DHT22;9270;49.774;8.472;2022-07-29T19:20:14;20.90;99.90
18289;DHT22;9270;49.774;8.472;2022-07-29T19:22:41;20.90;99.90
18289;DHT22;9270;49.774;8.472;2022-07-29T19:25:08;20.80;99.90
18289;DHT22;9270;49.774;8.472;2022-07-29T19:27:35;20.70;99.90
18289;DHT22;9270;49.774;8.472;2022-07-29T19:30:02;20.60;99.90
18289;DHT22;9270;49.774;8.472;2022-07-29T19:32:30;20.60;99.90
18289;DHT22;9270;49.774;8.472;2022-07-29T19:34:57;20.50;99.90
18289;DHT22;9270;49.774;8.472;2022-07-29T19:37:43;20.60;99.90
18289;DHT22;9270;49.774;8.472;2022-07-29T19:40:09;20.60;99.90
18289;DHT22;9270;49.774;8.472;2022-07-29T19:42:37;20.50;99.90
18289;DHT22;9270;49.774;8.472;2022-07-29T19:45:04;20.50;99.90
18289;DHT22;9270;49.774;8.472;2022-07-29T19:47:31;20.50;99.90
18289;DHT22;9270;49.774;8.472;2022-07-29T19:49:58;20.50;99.90
18289;DHT22;9270;49.774;8.472;2022-07-29T19:52:25;20.60;99.90
18289;DHT22;9270;49.774;8.472;2022-07-29T19:54:53;20.60;99.90
18289;DHT22;9270;49.774;8.472;2022-07-29T19:57:20;20.60;99.90
18289;DHT22;9270;49.774;8.472;2022-07-29T19:59:47;20.70;99.90
18289;DHT22;9270;49.774;8.472;2022-07-29T20:02:13;20.60;99.90
18289;DHT22;9270;49.774;8.472;2022-07-29T20:04:40;20.50;99.90
18289;DHT22;9270;49.774;8.472;2022-07-29T20:07:07;20.50;99.90
18289;DHT22;9270;49.774;8.472;2022-07-29T20:09:34;20.60;99.90
18289;DHT22;9270;49.774;8.472;2022-07-29T20:12:02;20.50;99.90
18289;DHT22;9270;49.774;8.472;2022-07-29T20:14:30;20.40;99.90
18289;DHT22;9270;49.774;8.472;2022-07-29T20:16:57;20.30;99.90
18289;DHT22;9270;49.774;8.472;2022-07-29T20:19:24;20.20;99.90
18289;DHT22;9270;49.774;8.472;2022-07-29T20:21:51;20.00;99.90
18289;DHT22;9270;49.774;8.472;2022-07-29T20:24:34;19.90;99.90
18289;DHT22;9270;49.774;8.472;2022-07-29T20:27:02;19.80;99.90
18289;DHT22;9270;49.774;8.472;2022-07-29T20:29:29;19.80;99.90